Latest Weather Observations for Forbes

IDN60801

Issued at 10:32 pm EST Friday 22 May 2015 (issued every 30 minutes, with the page automatically refreshed every 10 minutes)

About weather observations | Map of weather stations | Latest weather observations for NSW | Other Formats
Station Details ID: 065103 Name: FORBES AIRPORT AWS Lat: -33.36 Lon: 147.92 Height: 230.4 m
Data from the previous 72 hours. | See also: Recent months at Forbes
Date/Time
EST
Temp
°C
App
Temp
°C
Dew
Point
Rel
Hum
%
Delta-T
°C
Wind Press
QNH
hPa
Press
MSL
hPa
Rain
since 9 am
mm
Dir
 
Spd
km/h
Gust
km/h
Spd
kts
Gust
kts
22/10:30pm 6.4 5.3 4.9 90 0.7 CALM 0 0 0 0 1027.7 1027.7 0.0
22/10:00pm 7.0 5.8 4.8 86 1.0 CALM 0 4 0 2 1027.5 1027.5 0.0
22/09:30pm 8.7 6.1 4.3 74 2.0 ESE 7 11 4 6 1027.3 1027.3 0.0
22/09:00pm 10.4 7.6 5.0 69 2.5 SE 9 11 5 6 1026.8 1026.9 0.0
22/08:30pm 10.8 7.6 5.1 68 2.6 SE 11 13 6 7 1026.4 1026.5 0.0
22/08:00pm 11.3 8.1 5.0 65 2.9 SE 11 15 6 8 1026.1 1026.2 0.0
22/07:30pm 11.9 8.4 5.5 65 3.0 SE 13 19 7 10 1025.9 1026.0 0.0
22/07:00pm 11.1 8.1 5.8 70 2.5 SSE 11 15 6 8 1025.9 1026.0 0.0
22/06:30pm 11.5 8.5 6.0 69 2.6 SSE 11 15 6 8 1025.4 1025.5 0.0
22/06:00pm 12.9 9.5 6.0 63 3.3 SSE 13 19 7 10 1024.9 1024.9 0.0
22/05:30pm 13.4 9.6 5.8 60 3.6 SSE 15 22 8 12 1024.4 1024.4 0.0
22/05:00pm 14.6 10.4 5.7 55 4.3 SE 17 26 9 14 1024.0 1024.0 0.0
22/04:30pm 15.5 10.8 6.2 54 4.6 SSE 20 28 11 15 1024.0 1024.0 0.0
22/04:00pm 16.3 11.3 6.4 52 4.9 SSE 22 32 12 17 1023.7 1023.7 0.0
22/03:30pm 16.6 12.0 6.7 52 4.9 SSE 20 28 11 15 1023.3 1023.3 0.0
22/03:00pm 16.5 12.2 7.7 56 4.5 SSE 20 32 11 17 1023.2 1023.2 0.0
22/02:30pm 16.9 12.8 8.6 58 4.3 SSE 20 30 11 16 1023.2 1023.2 0.0
22/02:00pm 16.1 10.9 8.8 62 3.8 SSE 26 35 14 19 1023.0 1023.0 0.0
22/01:30pm 16.4 11.5 8.6 60 4.0 SSE 24 33 13 18 1022.7 1022.7 0.0
22/01:00pm 15.7 11.4 9.4 66 3.3 SSE 22 30 12 16 1022.6 1022.6 0.0
22/12:30pm 15.9 11.8 10.2 69 3.0 SSW 22 30 12 16 1022.6 1022.6 0.0
22/12:00pm 16.1 12.6 10.8 71 2.8 S 20 28 11 15 1022.7 1022.7 0.0
22/11:30am 15.0 12.5 11.2 78 2.1 SW 15 20 8 11 1022.9 1022.9 0.0
22/11:00am 14.0 10.9 10.4 79 1.9 SW 17 20 9 11 1023.0 1023.0 0.0
22/10:30am 13.6 10.6 10.6 82 1.6 SSW 17 22 9 12 1023.0 1023.0 0.0
22/10:00am 12.5 10.0 9.7 83 1.4 S 13 17 7 9 1022.7 1022.7 0.0
22/09:30am 11.8 9.4 10.0 89 0.9 S 13 15 7 8 1022.5 1022.5 0.0
22/09:00am 11.2 8.5 8.9 86 1.2 SSW 13 17 7 9 1022.3 1022.4 0.0
22/08:30am 10.3 7.2 8.9 91 0.7 S 15 20 8 11 1022.1 1022.2 0.0
22/08:00am 9.7 6.2 8.6 93 0.5 SSW 17 22 9 12 1021.6 1021.6 0.0
22/07:30am 9.3 5.3 8.4 94 0.4 SSW 19 22 10 12 1021.2 1021.2 0.0
22/07:00am 9.2 5.0 8.3 94 0.4 S 20 28 11 15 1021.0 1021.0 0.0
22/06:30am 8.7 5.0 7.8 94 0.4 SSW 17 20 9 11 1020.5 1020.5 0.0
22/06:00am 8.6 4.9 7.8 95 0.4 SSW 17 20 9 11 1020.1 1020.1 0.0
22/05:30am 8.4 5.4 7.8 96 0.3 SSW 13 17 7 9 1019.9 1019.9 0.0
22/05:00am 8.3 5.6 7.5 95 0.4 SW 11 15 6 8 1019.5 1019.5 0.0
22/04:30am 8.7 6.1 7.8 94 0.4 SW 11 13 6 7 1019.3 1019.3 0.0
22/04:00am 8.7 5.3 7.6 93 0.5 SSW 15 20 8 11 1019.2 1019.2 0.0
22/03:30am 8.5 5.4 7.4 93 0.5 SSW 13 17 7 9 1019.2 1019.2 0.0
22/03:00am 9.2 5.8 7.6 90 0.8 SSW 15 19 8 10 1019.2 1019.2 0.0
22/02:30am 9.1 5.3 7.5 90 0.8 SSW 17 20 9 11 1019.0 1019.0 0.0
22/02:00am 9.1 5.6 7.4 89 0.8 SW 15 20 8 11 1019.0 1019.0 0.0
22/01:30am 9.5 6.1 7.6 88 0.9 SSW 15 19 8 10 1019.1 1019.1 0.0
22/01:00am 9.6 5.8 7.5 87 1.0 SSW 17 20 9 11 1019.2 1019.2 0.0
22/12:30am 9.8 6.4 7.7 87 1.0 SSW 15 20 8 11 1019.6 1019.6 0.0
22/12:00am 10.0 6.6 7.8 86 1.1 SSW 15 20 8 11 1019.5 1019.5 0.0
 
Date/Time
EST
Temp
°C
App
Temp
°C
Dew
Point
Rel
Hum
%
Delta-T
°C
Wind Press
QNH
hPa
Press
MSL
hPa
Rain
since 9 am
mm
Dir
 
Spd
km/h
Gust
km/h
Spd
kts
Gust
kts
21/11:30pm 10.2 6.5 7.8 85 1.2 S 17 19 9 10 1019.5 1019.5 0.0
21/11:00pm 10.4 7.0 7.8 84 1.3 S 15 20 8 11 1019.4 1019.4 0.0
21/10:30pm 10.7 7.0 7.9 83 1.4 SSW 17 20 9 11 1019.4 1019.4 0.0
21/10:00pm 10.9 7.6 8.0 82 1.4 SSW 15 20 8 11 1019.3 1019.3 0.0
21/09:30pm 10.6 8.1 8.2 85 1.2 SSW 11 13 6 7 1019.4 1019.4 0.0
21/09:00pm 10.3 7.5 8.4 88 0.9 SW 13 13 7 7 1019.3 1019.3 0.0
21/08:30pm 10.1 7.9 7.9 86 1.1 S 9 11 5 6 1019.3 1019.3 0.0
21/08:00pm 10.8 8.6 7.9 82 1.4 S 9 11 5 6 1018.9 1018.9 0.0
21/07:30pm 11.5 8.9 7.8 78 1.8 SSW 11 13 6 7 1018.9 1018.9 0.0
21/07:00pm 12.1 9.6 8.4 78 1.8 SSE 11 13 6 7 1018.9 1018.9 0.0
21/06:30pm 12.7 10.7 8.8 77 2.0 SSE 9 13 5 7 1019.0 1019.0 0.0
21/06:00pm 12.8 11.0 9.3 79 1.8 S 9 11 5 6 1018.9 1018.9 0.0
21/05:30pm 13.4 10.8 9.3 76 2.1 S 13 17 7 9 1018.7 1018.7 0.0
21/05:00pm 13.7 10.4 9.4 75 2.2 S 17 20 9 11 1018.0 1017.9 0.0
21/04:30pm 14.6 12.1 9.6 72 2.6 S 13 17 7 9 1018.0 1017.9 0.0
21/04:00pm 15.0 12.4 9.4 69 2.9 S 13 17 7 9 1018.0 1017.9 0.0
21/03:30pm 15.3 12.8 9.7 69 2.9 S 13 17 7 9 1018.2 1018.2 0.0
21/03:00pm 15.7 13.9 9.4 66 3.3 S 9 13 5 7 1018.2 1018.2 0.0
21/02:30pm 15.7 14.0 8.4 62 3.7 S 7 13 4 7 1018.1 1018.1 0.0
21/02:00pm 15.7 14.1 8.2 61 3.8 S 6 9 3 5 1018.4 1018.4 0.0
21/01:30pm 15.9 14.4 9.1 64 3.5 SSW 7 11 4 6 1018.6 1018.6 0.0
21/01:00pm 16.3 15.3 8.8 61 3.9 SE 4 9 2 5 1018.9 1018.9 0.0
21/12:30pm 15.9 14.8 8.6 62 3.8 ESE 4 7 2 4 1019.3 1019.3 0.0
21/12:00pm 15.8 14.4 8.8 63 3.6 ESE 6 11 3 6 1019.7 1019.7 0.0
21/11:30am 15.4 13.7 8.2 62 3.7 SE 7 11 4 6 1020.0 1020.0 0.0
21/11:00am 15.4 13.6 9.3 67 3.2 ESE 9 13 5 7 1020.1 1020.1 0.0
21/10:30am 15.0 14.3 10.2 73 2.5 ESE 4 7 2 4 1020.3 1020.3 0.0
21/10:00am 13.8 13.6 10.6 81 1.7 SE 2 7 1 4 1020.4 1020.4 0.0
21/09:30am 13.2 13.4 10.6 84 1.4 CALM 0 0 0 0 1020.4 1020.4 0.0
21/09:00am 11.6 11.7 10.2 91 0.7 CALM 0 0 0 0 1020.3 1020.3 -
21/08:30am 10.3 10.4 10.1 99 0.1 CALM 0 0 0 0 1020.3 1020.3 -
21/08:00am 8.8 8.5 8.7 99 0.0 CALM 0 0 0 0 1020.1 1020.1 -
21/07:30am 7.1 6.4 7.0 99 0.0 CALM 0 0 0 0 1019.8 1019.8 -
21/07:00am 6.8 4.9 6.7 99 0.0 N 6 7 3 4 1019.5 1019.5 -
21/06:30am 7.1 6.4 7.0 99 0.0 CALM 0 0 0 0 1019.3 1019.3 -
21/06:00am 7.1 6.4 7.0 99 0.0 CALM 0 0 0 0 1019.1 1019.1 -
21/05:30am 7.9 7.4 7.8 99 0.0 CALM 0 0 0 0 1018.8 1018.8 -
21/05:00am 8.5 8.1 8.4 99 0.0 CALM 0 0 0 0 1018.7 1018.7 -
21/04:30am 8.1 7.6 7.8 98 0.1 CALM 0 0 0 0 1018.7 1018.7 -
21/04:00am 8.4 7.9 8.0 97 0.2 CALM 0 0 0 0 1018.6 1018.6 -
21/03:30am 9.3 7.9 8.8 97 0.2 SSW 6 6 3 3 1018.5 1018.5 -
21/03:00am 9.5 8.1 8.9 96 0.3 SSW 6 7 3 4 1018.6 1018.6 0.0
21/02:30am 10.2 9.0 9.4 95 0.4 SSW 6 7 3 4 1018.5 1018.5 -
21/02:00am 10.2 8.7 9.0 92 0.6 SSW 7 7 4 4 1018.6 1018.6 -
21/01:30am 10.9 9.4 9.2 89 0.9 SSW 7 9 4 5 1018.8 1018.8 -
21/01:00am 11.9 12.0 10.1 89 0.9 CALM 0 0 0 0 1018.8 1018.8 -
21/12:30am 12.6 13.0 11.2 91 0.7 CALM 0 0 0 0 1018.8 1018.8 -
21/12:00am 12.9 13.4 11.5 91 0.7 CALM 0 0 0 0 1019.0 1019.0 -
 
Date/Time
EST
Temp
°C
App
Temp
°C
Dew
Point
Rel
Hum
%
Delta-T
°C
Wind Press
QNH
hPa
Press
MSL
hPa
Rain
since 9 am
mm
Dir
 
Spd
km/h
Gust
km/h
Spd
kts
Gust
kts
20/11:30pm 13.0 12.2 11.2 89 1.0 WSW 6 7 3 4 1019.0 1019.0 -
20/11:00pm 13.2 12.4 11.1 87 1.1 SW 6 7 3 4 1018.9 1018.9 -
20/10:30pm 13.4 12.5 11.5 88 1.0 SW 7 11 4 6 1019.1 1019.1 -
20/10:00pm 13.4 12.7 11.5 88 1.0 SW 6 7 3 4 1019.0 1019.0 -
20/09:30pm 13.6 12.0 11.5 87 1.1 SW 11 13 6 7 1019.1 1019.1 -
20/09:00pm 14.3 12.3 11.6 84 1.5 SW 13 15 7 8 1018.6 1018.6 0.0
20/08:30pm 14.5 13.0 12.0 85 1.4 WSW 11 15 6 8 1018.3 1018.3 -
20/08:00pm 15.2 13.5 12.5 84 1.5 WSW 13 15 7 8 1018.0 1017.9 -
20/07:30pm 15.1 14.0 13.0 87 1.2 WSW 11 13 6 7 1017.4 1017.4 -
20/07:00pm 15.9 14.9 13.4 85 1.4 WSW 11 15 6 8 1017.0 1017.0 -
20/06:30pm 16.3 14.6 13.6 84 1.5 WSW 15 19 8 10 1016.8 1016.8 -
20/06:00pm 16.7 14.6 13.6 82 1.8 WSW 17 20 9 11 1016.4 1016.4 -
20/05:30pm 16.9 14.9 13.8 82 1.8 W 17 22 9 12 1016.1 1016.1 -
20/05:00pm 17.3 15.9 14.6 84 1.6 W 15 17 8 9 1015.9 1015.9 -
20/04:30pm 17.7 17.2 15.0 84 1.6 WNW 11 13 6 7 1015.4 1015.4 -
20/04:00pm 18.0 17.8 14.7 81 1.9 WNW 9 11 5 6 1015.0 1015.0 -
20/03:30pm 18.5 17.7 15.2 81 2.0 WNW 13 17 7 9 1015.2 1015.2 -
20/03:00pm 18.9 16.5 14.4 75 2.6 NW 20 24 11 13 1015.3 1015.3 -
20/02:30pm 19.3 17.1 14.8 75 2.7 WNW 20 26 11 14 1015.1 1015.1 -
20/02:00pm 19.7 17.7 14.9 74 2.8 NW 19 24 10 13 1015.1 1015.1 -
20/01:30pm 19.7 17.8 15.1 75 2.7 NW 19 24 10 13 1015.0 1015.0 -
20/01:00pm 20.3 18.6 15.7 75 2.8 NW 19 24 10 13 1015.0 1015.0 0.0
20/12:30pm 19.9 18.0 15.1 74 2.9 NW 19 24 10 13 1015.6 1015.6 0.0
20/12:00pm 19.6 17.9 14.6 73 2.9 NW 17 22 9 12 1015.8 1015.8 0.0
20/11:30am 19.6 17.8 15.5 77 2.4 NW 19 24 10 13 1016.1 1016.1 0.0
20/11:00am 19.1 17.1 15.6 80 2.1 NW 20 26 11 14 1016.2 1016.2 0.0
20/10:30am 18.8 17.7 15.3 80 2.1 NNW 15 20 8 11 1016.2 1016.2 0.0
20/10:00am 17.6 15.8 14.5 82 1.8 N 17 20 9 11 1016.3 1016.3 0.0
20/09:30am 16.8 15.1 14.8 88 1.2 N 17 20 9 11 1016.4 1016.4 0.0
20/09:00am 15.6 14.6 14.6 94 0.6 N 13 17 7 9 1016.3 1016.3 23.6
20/08:30am 13.9 15.1 13.7 99 0.1 CALM 0 0 0 0 1016.0 1016.0 23.6
20/08:00am 12.8 13.2 12.6 99 0.1 N 2 7 1 4 1015.9 1015.9 23.6
20/07:30am 11.9 10.0 11.7 99 0.1 N 13 17 7 9 1015.7 1015.7 23.6
20/07:00am 10.7 8.4 10.5 99 0.1 NNE 13 13 7 7 1015.3 1015.3 23.6
20/06:30am 10.3 10.4 10.1 99 0.1 CALM 0 0 0 0 1015.2 1015.2 23.6
20/06:00am 11.3 11.7 11.1 99 0.1 CALM 0 0 0 0 1015.2 1015.2 23.6
20/05:30am 11.5 10.6 11.3 99 0.1 N 7 13 4 7 1015.0 1015.0 23.4
20/05:00am 11.8 10.2 11.6 99 0.1 NNE 11 13 6 7 1014.8 1014.8 23.4
20/04:30am 12.2 10.7 12.0 99 0.1 NNE 11 15 6 8 1014.8 1014.8 23.4
20/04:00am 12.7 11.0 12.5 99 0.1 NNE 13 17 7 9 1014.8 1014.8 23.4
20/03:30am 12.7 11.0 12.5 99 0.1 NNE 13 17 7 9 1014.9 1014.9 23.4
20/03:00am 12.8 11.1 12.6 99 0.1 NNE 13 17 7 9 1015.0 1015.0 23.4
20/02:30am 12.7 11.0 12.5 99 0.1 NNE 13 15 7 8 1015.2 1015.2 23.4
20/02:00am 12.8 11.5 12.6 99 0.1 NE 11 15 6 8 1015.1 1015.1 23.4
20/01:30am 12.6 10.9 12.4 99 0.1 NE 13 17 7 9 1015.4 1015.4 23.2
20/01:00am 12.6 12.2 12.3 98 0.2 NNE 6 9 3 5 1015.2 1015.2 23.2
20/12:30am 12.8 12.2 12.3 97 0.3 W 7 9 4 5 1016.0 1016.0 23.2
20/12:00am 13.1 6.8 12.2 94 0.5 WSW 37 52 20 28 1016.5 1016.5 20.8
 
Date/Time
EST
Temp
°C
App
Temp
°C
Dew
Point
Rel
Hum
%
Delta-T
°C
Wind Press
QNH
hPa
Press
MSL
hPa
Rain
since 9 am
mm
Dir
 
Spd
km/h
Gust
km/h
Spd
kts
Gust
kts
19/11:51pm 13.1 6.8 12.3 95 0.4 W 37 54 20 29 1016.3 1016.3 19.4
19/11:42pm 13.3 12.0 12.4 94 0.5 S 11 46 6 25 1017.0 1017.0 14.4
19/11:30pm 13.2 13.8 11.9 92 0.7 CALM 0 0 0 0 1015.2 1015.2 14.2
19/11:00pm 12.9 12.1 11.6 92 0.7 NE 7 13 4 7 1015.2 1015.2 14.2

Other Formats:

Comma delimited format used in spreadsheet applications
http://www.bom.gov.au/fwo/IDN60801/IDN60801.94715.axf

JavaScript Object Notation format (JSON) in row-major order
http://www.bom.gov.au/fwo/IDN60801/IDN60801.94715.json